sensor_id;sensor_type;location;lat;lon;timestamp;P1;durP1;ratioP1;P2;durP2;ratioP2
37877;SDS011;23715;53.652;8.516;2023-09-19T11:44:32;9.95;;;9.55;;
37877;SDS011;23715;53.652;8.516;2023-09-19T11:49:35;10.23;;;9.78;;
37877;SDS011;23715;53.652;8.516;2023-09-19T11:54:39;9.03;;;8.63;;
37877;SDS011;23715;53.652;8.516;2023-09-19T11:59:42;9.88;;;9.48;;
37877;SDS011;23715;53.652;8.516;2023-09-19T12:04:44;11.20;;;10.70;;
37877;SDS011;23715;53.652;8.516;2023-09-19T12:09:47;11.70;;;11.20;;
37877;SDS011;23715;53.652;8.516;2023-09-19T12:14:50;11.97;;;11.48;;
37877;SDS011;23715;53.652;8.516;2023-09-19T12:19:51;10.98;;;10.48;;
37877;SDS011;23715;53.652;8.516;2023-09-19T12:24:52;10.93;;;10.43;;
37877;SDS011;23715;53.652;8.516;2023-09-19T12:29:55;10.75;;;10.25;;
37877;SDS011;23715;53.652;8.516;2023-09-19T12:34:59;13.55;;;12.85;;
37877;SDS011;23715;53.652;8.516;2023-09-19T12:40:06;11.70;;;11.20;;
37877;SDS011;23715;53.652;8.516;2023-09-19T12:45:19;11.00;;;10.50;;
37877;SDS011;23715;53.652;8.516;2023-09-19T12:50:24;11.63;;;11.10;;
37877;SDS011;23715;53.652;8.516;2023-09-19T12:55:27;11.83;;;11.18;;
37877;SDS011;23715;53.652;8.516;2023-09-19T13:00:41;9.20;;;8.80;;
37877;SDS011;23715;53.652;8.516;2023-09-19T13:16:03;10.88;;;10.38;;
37877;SDS011;23715;53.652;8.516;2023-09-19T13:21:13;10.20;;;9.80;;
37877;SDS011;23715;53.652;8.516;2023-09-19T13:26:11;9.93;;;9.53;;
37877;SDS011;23715;53.652;8.516;2023-09-19T13:31:11;9.30;;;8.90;;
37877;SDS011;23715;53.652;8.516;2023-09-19T13:36:15;9.73;;;9.33;;
37877;SDS011;23715;53.652;8.516;2023-09-19T13:41:17;8.25;;;7.95;;
37877;SDS011;23715;53.652;8.516;2023-09-19T13:46:20;9.35;;;8.95;;
37877;SDS011;23715;53.652;8.516;2023-09-19T13:51:22;10.80;;;10.30;;
37877;SDS011;23715;53.652;8.516;2023-09-19T13:56:23;10.58;;;10.08;;
37877;SDS011;23715;53.652;8.516;2023-09-19T14:01:25;8.90;;;8.50;;
37877;SDS011;23715;53.652;8.516;2023-09-19T14:06:26;9.60;;;9.20;;
37877;SDS011;23715;53.652;8.516;2023-09-19T14:11:28;9.48;;;9.08;;
37877;SDS011;23715;53.652;8.516;2023-09-19T14:16:34;9.48;;;9.08;;
37877;SDS011;23715;53.652;8.516;2023-09-19T14:21:35;9.28;;;8.88;;
37877;SDS011;23715;53.652;8.516;2023-09-19T14:26:38;9.50;;;9.10;;
37877;SDS011;23715;53.652;8.516;2023-09-19T14:31:42;10.00;;;9.60;;
37877;SDS011;23715;53.652;8.516;2023-09-19T14:36:42;9.58;;;9.18;;
37877;SDS011;23715;53.652;8.516;2023-09-19T14:41:43;9.95;;;9.55;;
37877;SDS011;23715;53.652;8.516;2023-09-19T14:46:48;10.43;;;9.95;;
37877;SDS011;23715;53.652;8.516;2023-09-19T14:51:49;8.70;;;8.30;;
37877;SDS011;23715;53.652;8.516;2023-09-19T14:56:53;9.50;;;9.10;;
37877;SDS011;23715;53.652;8.516;2023-09-19T15:01:58;11.10;;;10.60;;
37877;SDS011;23715;53.652;8.516;2023-09-19T15:07:05;10.82;;;10.32;;
37877;SDS011;23715;53.652;8.516;2023-09-19T15:17:14;9.60;;;9.05;;
37877;SDS011;23715;53.652;8.516;2023-09-19T15:22:27;7.00;;;6.70;;
37877;SDS011;23715;53.652;8.516;2023-09-19T15:27:14;8.10;;;7.70;;
37877;SDS011;23715;53.652;8.516;2023-09-19T15:32:17;7.62;;;7.33;;
37877;SDS011;23715;53.652;8.516;2023-09-19T15:37:18;7.47;;;7.17;;
37877;SDS011;23715;53.652;8.516;2023-09-19T15:42:20;7.37;;;7.08;;
37877;SDS011;23715;53.652;8.516;2023-09-19T15:47:27;7.20;;;6.90;;
37877;SDS011;23715;53.652;8.516;2023-09-19T15:52:26;6.97;;;6.67;;
37877;SDS011;23715;53.652;8.516;2023-09-19T15:57:26;7.30;;;7.00;;
37877;SDS011;23715;53.652;8.516;2023-09-19T16:02:29;8.13;;;7.83;;
37877;SDS011;23715;53.652;8.516;2023-09-19T16:07:32;13.78;;;10.23;;
37877;SDS011;23715;53.652;8.516;2023-09-19T16:12:32;7.10;;;6.80;;
37877;SDS011;23715;53.652;8.516;2023-09-19T16:17:33;7.97;;;7.60;;
37877;SDS011;23715;53.652;8.516;2023-09-19T16:22:34;7.25;;;6.95;;
37877;SDS011;23715;53.652;8.516;2023-09-19T16:27:35;7.40;;;7.10;;
37877;SDS011;23715;53.652;8.516;2023-09-19T16:32:40;7.20;;;6.90;;
37877;SDS011;23715;53.652;8.516;2023-09-19T16:37:45;7.58;;;7.28;;
37877;SDS011;23715;53.652;8.516;2023-09-19T16:42:50;7.30;;;7.00;;
37877;SDS011;23715;53.652;8.516;2023-09-19T16:47:55;7.42;;;7.12;;
37877;SDS011;23715;53.652;8.516;2023-09-19T16:57:58;7.87;;;7.58;;
37877;SDS011;23715;53.652;8.516;2023-09-19T17:03:03;8.28;;;7.87;;
37877;SDS011;23715;53.652;8.516;2023-09-19T17:08:10;9.15;;;8.75;;
37877;SDS011;23715;53.652;8.516;2023-09-19T17:13:10;8.93;;;8.53;;
37877;SDS011;23715;53.652;8.516;2023-09-19T17:18:20;9.40;;;9.00;;
37877;SDS011;23715;53.652;8.516;2023-09-19T17:23:21;10.08;;;9.65;;
37877;SDS011;23715;53.652;8.516;2023-09-19T17:28:27;10.70;;;10.20;;
37877;SDS011;23715;53.652;8.516;2023-09-19T17:33:34;9.60;;;9.20;;
37877;SDS011;23715;53.652;8.516;2023-09-19T17:38:36;9.38;;;8.98;;
37877;SDS011;23715;53.652;8.516;2023-09-19T17:43:36;9.83;;;9.43;;
37877;SDS011;23715;53.652;8.516;2023-09-19T17:48:39;9.08;;;8.68;;
37877;SDS011;23715;53.652;8.516;2023-09-19T17:53:42;8.90;;;8.50;;
37877;SDS011;23715;53.652;8.516;2023-09-19T17:58:48;9.43;;;9.03;;
37877;SDS011;23715;53.652;8.516;2023-09-19T18:03:49;10.10;;;9.65;;
37877;SDS011;23715;53.652;8.516;2023-09-19T18:08:53;11.45;;;10.95;;
37877;SDS011;23715;53.652;8.516;2023-09-19T18:13:56;10.35;;;9.95;;
37877;SDS011;23715;53.652;8.516;2023-09-19T18:18:57;11.80;;;11.30;;
37877;SDS011;23715;53.652;8.516;2023-09-19T18:23:58;12.20;;;11.70;;
37877;SDS011;23715;53.652;8.516;2023-09-19T18:29:01;14.70;;;14.10;;
37877;SDS011;23715;53.652;8.516;2023-09-19T18:34:03;20.10;;;19.20;;
37877;SDS011;23715;53.652;8.516;2023-09-19T18:39:08;24.72;;;23.52;;
37877;SDS011;23715;53.652;8.516;2023-09-19T18:44:08;23.67;;;22.62;;
37877;SDS011;23715;53.652;8.516;2023-09-19T18:49:09;24.32;;;23.22;;
37877;SDS011;23715;53.652;8.516;2023-09-19T18:54:11;21.73;;;20.72;;
37877;SDS011;23715;53.652;8.516;2023-09-19T19:04:15;19.10;;;18.25;;
37877;SDS011;23715;53.652;8.516;2023-09-19T19:09:17;18.05;;;17.25;;
37877;SDS011;23715;53.652;8.516;2023-09-19T19:14:19;18.40;;;17.60;;
37877;SDS011;23715;53.652;8.516;2023-09-19T19:19:22;16.97;;;16.25;;
37877;SDS011;23715;53.652;8.516;2023-09-19T19:24:30;16.17;;;15.48;;
37877;SDS011;23715;53.652;8.516;2023-09-19T19:29:29;15.78;;;15.08;;
37877;SDS011;23715;53.652;8.516;2023-09-19T19:39:39;16.05;;;15.35;;
37877;SDS011;23715;53.652;8.516;2023-09-19T19:44:39;16.87;;;16.17;;
37877;SDS011;23715;53.652;8.516;2023-09-19T19:49:41;16.87;;;16.17;;
37877;SDS011;23715;53.652;8.516;2023-09-19T19:54:44;19.85;;;18.95;;
37877;SDS011;23715;53.652;8.516;2023-09-19T19:59:46;18.10;;;17.30;;
37877;SDS011;23715;53.652;8.516;2023-09-19T20:04:49;18.57;;;17.77;;
37877;SDS011;23715;53.652;8.516;2023-09-19T20:09:51;19.57;;;18.67;;
37877;SDS011;23715;53.652;8.516;2023-09-19T20:14:57;21.07;;;20.15;;
37877;SDS011;23715;53.652;8.516;2023-09-19T20:19:57;22.45;;;21.45;;
37877;SDS011;23715;53.652;8.516;2023-09-19T20:24:58;24.27;;;23.18;;
37877;SDS011;23715;53.652;8.516;2023-09-19T20:30:04;27.02;;;25.82;;
37877;SDS011;23715;53.652;8.516;2023-09-19T20:35:06;30.25;;;28.85;;
37877;SDS011;23715;53.652;8.516;2023-09-19T20:40:08;29.92;;;28.62;;
37877;SDS011;23715;53.652;8.516;2023-09-19T20:45:09;31.07;;;29.52;;
37877;SDS011;23715;53.652;8.516;2023-09-19T20:50:14;34.65;;;33.08;;
37877;SDS011;23715;53.652;8.516;2023-09-19T20:55:15;38.28;;;36.58;;
37877;SDS011;23715;53.652;8.516;2023-09-19T21:00:18;38.75;;;36.98;;
37877;SDS011;23715;53.652;8.516;2023-09-19T21:05:18;37.73;;;36.03;;
37877;SDS011;23715;53.652;8.516;2023-09-19T21:10:38;36.95;;;35.25;;
37877;SDS011;23715;53.652;8.516;2023-09-19T21:15:28;36.65;;;34.95;;
37877;SDS011;23715;53.652;8.516;2023-09-19T21:20:51;37.70;;;36.00;;
37877;SDS011;23715;53.652;8.516;2023-09-19T21:26:06;37.83;;;36.08;;
37877;SDS011;23715;53.652;8.516;2023-09-19T21:32:04;38.25;;;36.55;;
37877;SDS011;23715;53.652;8.516;2023-09-19T21:37:47;40.50;;;38.70;;
37877;SDS011;23715;53.652;8.516;2023-09-19T21:43:17;44.45;;;42.45;;
37877;SDS011;23715;53.652;8.516;2023-09-19T21:54:51;42.55;;;40.65;;
37877;SDS011;23715;53.652;8.516;2023-09-19T22:00:03;46.02;;;43.92;;
37877;SDS011;23715;53.652;8.516;2023-09-19T22:05:28;44.15;;;42.15;;
37877;SDS011;23715;53.652;8.516;2023-09-19T22:10:42;40.30;;;38.50;;
37877;SDS011;23715;53.652;8.516;2023-09-19T22:15:49;43.78;;;41.77;;
37877;SDS011;23715;53.652;8.516;2023-09-19T22:21:00;47.70;;;45.50;;
37877;SDS011;23715;53.652;8.516;2023-09-19T22:26:04;47.35;;;45.15;;
37877;SDS011;23715;53.652;8.516;2023-09-19T22:31:17;49.35;;;47.05;;
37877;SDS011;23715;53.652;8.516;2023-09-19T22:36:31;48.20;;;46.00;;
37877;SDS011;23715;53.652;8.516;2023-09-19T22:41:44;50.25;;;47.93;;
37877;SDS011;23715;53.652;8.516;2023-09-19T22:46:47;49.83;;;47.53;;
37877;SDS011;23715;53.652;8.516;2023-09-19T22:51:55;52.80;;;50.33;;
37877;SDS011;23715;53.652;8.516;2023-09-19T22:56:54;45.50;;;43.40;;
37877;SDS011;23715;53.652;8.516;2023-09-19T23:01:56;46.70;;;44.60;;
37877;SDS011;23715;53.652;8.516;2023-09-19T23:06:56;49.75;;;47.45;;
37877;SDS011;23715;53.652;8.516;2023-09-19T23:11:59;44.23;;;42.20;;
37877;SDS011;23715;53.652;8.516;2023-09-19T23:17:03;41.88;;;39.98;;
37877;SDS011;23715;53.652;8.516;2023-09-19T23:22:15;44.20;;;42.20;;
37877;SDS011;23715;53.652;8.516;2023-09-19T23:27:17;44.98;;;42.88;;
37877;SDS011;23715;53.652;8.516;2023-09-19T23:32:19;42.45;;;40.55;;
37877;SDS011;23715;53.652;8.516;2023-09-19T23:37:22;43.50;;;41.50;;
37877;SDS011;23715;53.652;8.516;2023-09-19T23:42:31;40.83;;;38.92;;
37877;SDS011;23715;53.652;8.516;2023-09-19T23:47:41;37.88;;;36.17;;
37877;SDS011;23715;53.652;8.516;2023-09-19T23:52:50;37.50;;;35.80;;
37877;SDS011;23715;53.652;8.516;2023-09-19T23:57:53;42.70;;;40.75;;
